sensor_id;sensor_type;location;lat;lon;timestamp;temperature;humidity
30336;DHT22;17142;47.990;7.846;2022-07-30T05:24:09;21.40;92.60
30336;DHT22;17142;47.990;7.846;2022-07-30T05:26:34;21.60;92.00
30336;DHT22;17142;47.990;7.846;2022-07-30T05:29:00;21.90;91.30
30336;DHT22;17142;47.990;7.846;2022-07-30T05:31:26;22.30;90.50
30336;DHT22;17142;47.990;7.846;2022-07-30T05:33:54;22.70;88.30
30336;DHT22;17142;47.990;7.846;2022-07-30T05:36:20;22.90;86.50
30336;DHT22;17142;47.990;7.846;2022-07-30T05:38:48;23.20;84.80
30336;DHT22;17142;47.990;7.846;2022-07-30T05:41:16;23.50;83.20
30336;DHT22;17142;47.990;7.846;2022-07-30T05:43:44;23.60;81.90
30336;DHT22;17142;47.990;7.846;2022-07-30T05:46:10;23.70;80.40
30336;DHT22;17142;47.990;7.846;2022-07-30T05:48:35;23.70;79.70
30336;DHT22;17142;47.990;7.846;2022-07-30T05:51:04;23.80;78.60
30336;DHT22;17142;47.990;7.846;2022-07-30T05:53:30;23.90;78.90
30336;DHT22;17142;47.990;7.846;2022-07-30T05:55:56;24.20;77.70
30336;DHT22;17142;47.990;7.846;2022-07-30T05:58:21;24.50;76.50
30336;DHT22;17142;47.990;7.846;2022-07-30T06:00:47;24.80;73.80
30336;DHT22;17142;47.990;7.846;2022-07-30T06:03:15;25.00;73.30
30336;DHT22;17142;47.990;7.846;2022-07-30T06:05:41;25.30;71.80
30336;DHT22;17142;47.990;7.846;2022-07-30T06:08:06;25.40;71.40
30336;DHT22;17142;47.990;7.846;2022-07-30T06:10:33;25.50;70.10
30336;DHT22;17142;47.990;7.846;2022-07-30T06:12:59;25.70;68.90
30336;DHT22;17142;47.990;7.846;2022-07-30T06:15:25;25.80;69.00
30336;DHT22;17142;47.990;7.846;2022-07-30T06:17:50;26.10;67.80
30336;DHT22;17142;47.990;7.846;2022-07-30T06:20:18;26.30;65.50
30336;DHT22;17142;47.990;7.846;2022-07-30T06:22:43;26.40;66.20
30336;DHT22;17142;47.990;7.846;2022-07-30T06:25:10;26.70;64.60
30336;DHT22;17142;47.990;7.846;2022-07-30T06:27:35;26.80;63.70
30336;DHT22;17142;47.990;7.846;2022-07-30T06:30:06;26.90;63.30
30336;DHT22;17142;47.990;7.846;2022-07-30T06:32:32;27.20;62.40
30336;DHT22;17142;47.990;7.846;2022-07-30T06:34:58;27.30;61.70
30336;DHT22;17142;47.990;7.846;2022-07-30T06:37:24;27.50;60.80
30336;DHT22;17142;47.990;7.846;2022-07-30T06:39:50;27.50;60.60
30336;DHT22;17142;47.990;7.846;2022-07-30T06:42:18;27.60;59.50
30336;DHT22;17142;47.990;7.846;2022-07-30T06:44:44;27.50;59.30
30336;DHT22;17142;47.990;7.846;2022-07-30T06:47:10;27.80;58.70
30336;DHT22;17142;47.990;7.846;2022-07-30T06:49:36;28.10;58.40
30336;DHT22;17142;47.990;7.846;2022-07-30T06:52:04;28.60;56.70
30336;DHT22;17142;47.990;7.846;2022-07-30T06:54:30;28.90;56.30
30336;DHT22;17142;47.990;7.846;2022-07-30T06:56:56;29.20;54.60
30336;DHT22;17142;47.990;7.846;2022-07-30T06:59:21;29.70;54.10
30336;DHT22;17142;47.990;7.846;2022-07-30T07:01:47;30.10;52.30
30336;DHT22;17142;47.990;7.846;2022-07-30T07:04:13;30.60;51.20
30336;DHT22;17142;47.990;7.846;2022-07-30T07:06:39;31.10;50.20
30336;DHT22;17142;47.990;7.846;2022-07-30T07:09:05;31.40;49.20
30336;DHT22;17142;47.990;7.846;2022-07-30T07:11:31;31.60;47.70
30336;DHT22;17142;47.990;7.846;2022-07-30T07:13:57;31.50;47.90
30336;DHT22;17142;47.990;7.846;2022-07-30T07:16:23;31.20;47.70
30336;DHT22;17142;47.990;7.846;2022-07-30T07:18:53;30.80;48.20
30336;DHT22;17142;47.990;7.846;2022-07-30T07:21:21;31.00;48.30
30336;DHT22;17142;47.990;7.846;2022-07-30T07:23:48;31.40;47.30
30336;DHT22;17142;47.990;7.846;2022-07-30T07:26:17;31.40;47.00
30336;DHT22;17142;47.990;7.846;2022-07-30T07:28:45;31.10;47.00
30336;DHT22;17142;47.990;7.846;2022-07-30T07:31:10;31.00;47.50
30336;DHT22;17142;47.990;7.846;2022-07-30T07:33:38;31.20;47.20
30336;DHT22;17142;47.990;7.846;2022-07-30T07:36:05;31.60;46.50
30336;DHT22;17142;47.990;7.846;2022-07-30T07:38:31;31.90;45.70
30336;DHT22;17142;47.990;7.846;2022-07-30T07:40:59;31.70;45.90
30336;DHT22;17142;47.990;7.846;2022-07-30T07:43:27;31.40;46.00
30336;DHT22;17142;47.990;7.846;2022-07-30T07:45:53;31.20;46.20
30336;DHT22;17142;47.990;7.846;2022-07-30T07:48:18;31.20;46.30
30336;DHT22;17142;47.990;7.846;2022-07-30T07:50:46;31.20;45.80
30336;DHT22;17142;47.990;7.846;2022-07-30T07:53:14;31.00;46.20
30336;DHT22;17142;47.990;7.846;2022-07-30T07:55:40;31.00;46.30
30336;DHT22;17142;47.990;7.846;2022-07-30T07:58:05;31.20;46.00
30336;DHT22;17142;47.990;7.846;2022-07-30T08:00:31;31.10;46.20
30336;DHT22;17142;47.990;7.846;2022-07-30T08:02:57;30.80;46.20
30336;DHT22;17142;47.990;7.846;2022-07-30T08:05:22;30.50;47.60
30336;DHT22;17142;47.990;7.846;2022-07-30T08:07:48;30.40;46.90
30336;DHT22;17142;47.990;7.846;2022-07-30T08:10:17;30.40;47.10
30336;DHT22;17142;47.990;7.846;2022-07-30T08:12:43;30.50;47.00
30336;DHT22;17142;47.990;7.846;2022-07-30T08:15:09;30.80;46.80
30336;DHT22;17142;47.990;7.846;2022-07-30T08:17:44;31.00;46.40
30336;DHT22;17142;47.990;7.846;2022-07-30T08:20:12;30.70;46.40
30336;DHT22;17142;47.990;7.846;2022-07-30T08:22:40;30.50;46.70
30336;DHT22;17142;47.990;7.846;2022-07-30T08:25:08;30.20;47.30
30336;DHT22;17142;47.990;7.846;2022-07-30T08:27:37;29.80;47.90
30336;DHT22;17142;47.990;7.846;2022-07-30T08:30:07;29.80;48.30
30336;DHT22;17142;47.990;7.846;2022-07-30T08:32:33;30.00;48.10
30336;DHT22;17142;47.990;7.846;2022-07-30T08:34:59;30.20;47.50
30336;DHT22;17142;47.990;7.846;2022-07-30T08:37:24;30.20;47.60
30336;DHT22;17142;47.990;7.846;2022-07-30T08:39:52;30.40;47.50
30336;DHT22;17142;47.990;7.846;2022-07-30T08:42:18;30.50;47.40
30336;DHT22;17142;47.990;7.846;2022-07-30T08:44:45;30.50;45.80
30336;DHT22;17142;47.990;7.846;2022-07-30T08:47:17;30.10;45.30
30336;DHT22;17142;47.990;7.846;2022-07-30T08:49:45;29.80;46.50
30336;DHT22;17142;47.990;7.846;2022-07-30T08:52:11;29.30;44.50
30336;DHT22;17142;47.990;7.846;2022-07-30T08:54:39;28.80;45.50
30336;DHT22;17142;47.990;7.846;2022-07-30T08:57:05;28.60;45.70
30336;DHT22;17142;47.990;7.846;2022-07-30T08:59:31;28.70;44.70
30336;DHT22;17142;47.990;7.846;2022-07-30T09:01:59;29.00;43.70
30336;DHT22;17142;47.990;7.846;2022-07-30T09:04:25;29.40;44.60
30336;DHT22;17142;47.990;7.846;2022-07-30T09:06:50;29.70;44.50
30336;DHT22;17142;47.990;7.846;2022-07-30T09:09:16;29.90;44.20
30336;DHT22;17142;47.990;7.846;2022-07-30T09:11:44;29.90;44.40
30336;DHT22;17142;47.990;7.846;2022-07-30T09:14:12;29.90;44.40
30336;DHT22;17142;47.990;7.846;2022-07-30T09:16:38;29.90;44.80
30336;DHT22;17142;47.990;7.846;2022-07-30T09:19:16;30.20;44.70
30336;DHT22;17142;47.990;7.846;2022-07-30T09:21:53;30.40;43.80
30336;DHT22;17142;47.990;7.846;2022-07-30T09:24:18;30.40;43.80
30336;DHT22;17142;47.990;7.846;2022-07-30T09:27:03;30.50;43.50
30336;DHT22;17142;47.990;7.846;2022-07-30T09:29:34;30.30;42.10
30336;DHT22;17142;47.990;7.846;2022-07-30T09:32:03;29.80;42.60
30336;DHT22;17142;47.990;7.846;2022-07-30T09:34:36;29.40;43.30
30336;DHT22;17142;47.990;7.846;2022-07-30T09:37:04;29.00;43.50
30336;DHT22;17142;47.990;7.846;2022-07-30T09:39:41;28.90;44.00
30336;DHT22;17142;47.990;7.846;2022-07-30T09:44:46;29.20;43.20
30336;DHT22;17142;47.990;7.846;2022-07-30T09:47:40;29.40;42.30
30336;DHT22;17142;47.990;7.846;2022-07-30T09:50:08;29.60;42.00
30336;DHT22;17142;47.990;7.846;2022-07-30T09:52:37;29.70;42.10
30336;DHT22;17142;47.990;7.846;2022-07-30T09:55:03;29.70;41.60
30336;DHT22;17142;47.990;7.846;2022-07-30T09:57:29;29.60;41.30
30336;DHT22;17142;47.990;7.846;2022-07-30T10:00:15;29.60;41.20
30336;DHT22;17142;47.990;7.846;2022-07-30T10:02:41;29.40;41.50
30336;DHT22;17142;47.990;7.846;2022-07-30T10:05:11;29.20;41.60
30336;DHT22;17142;47.990;7.846;2022-07-30T10:07:37;28.90;42.20
30336;DHT22;17142;47.990;7.846;2022-07-30T10:10:06;28.60;42.50
30336;DHT22;17142;47.990;7.846;2022-07-30T10:12:32;28.50;42.90
30336;DHT22;17142;47.990;7.846;2022-07-30T10:15:01;28.40;43.00
30336;DHT22;17142;47.990;7.846;2022-07-30T10:17:30;28.30;43.40
30336;DHT22;17142;47.990;7.846;2022-07-30T10:19:59;28.40;43.60
30336;DHT22;17142;47.990;7.846;2022-07-30T10:22:25;28.70;43.30
30336;DHT22;17142;47.990;7.846;2022-07-30T10:24:51;28.90;43.40
30336;DHT22;17142;47.990;7.846;2022-07-30T10:27:20;29.20;42.20
30336;DHT22;17142;47.990;7.846;2022-07-30T10:29:49;29.00;42.70
30336;DHT22;17142;47.990;7.846;2022-07-30T10:32:15;29.00;43.00
30336;DHT22;17142;47.990;7.846;2022-07-30T10:34:41;29.00;42.30
30336;DHT22;17142;47.990;7.846;2022-07-30T10:37:08;28.80;42.60
30336;DHT22;17142;47.990;7.846;2022-07-30T10:39:46;28.70;42.80
30336;DHT22;17142;47.990;7.846;2022-07-30T10:47:52;28.70;43.30
30336;DHT22;17142;47.990;7.846;2022-07-30T10:50:21;29.00;43.00
30336;DHT22;17142;47.990;7.846;2022-07-30T10:52:58;29.00;42.90
30336;DHT22;17142;47.990;7.846;2022-07-30T10:55:29;28.70;43.50
30336;DHT22;17142;47.990;7.846;2022-07-30T10:58:09;28.50;43.80
30336;DHT22;17142;47.990;7.846;2022-07-30T11:03:25;28.60;43.80
30336;DHT22;17142;47.990;7.846;2022-07-30T11:08:44;28.50;43.90
30336;DHT22;17142;47.990;7.846;2022-07-30T11:13:59;29.00;43.70
30336;DHT22;17142;47.990;7.846;2022-07-30T11:19:14;29.10;42.80
30336;DHT22;17142;47.990;7.846;2022-07-30T11:22:24;29.00;43.50
30336;DHT22;17142;47.990;7.846;2022-07-30T11:24:51;28.70;43.70
30336;DHT22;17142;47.990;7.846;2022-07-30T11:30:01;28.70;44.10
30336;DHT22;17142;47.990;7.846;2022-07-30T11:32:33;28.60;44.00
30336;DHT22;17142;47.990;7.846;2022-07-30T11:40:28;29.20;43.60
30336;DHT22;17142;47.990;7.846;2022-07-30T11:45:46;30.10;42.40
30336;DHT22;17142;47.990;7.846;2022-07-30T11:48:14;30.40;41.30
30336;DHT22;17142;47.990;7.846;2022-07-30T11:50:43;30.40;41.50
30336;DHT22;17142;47.990;7.846;2022-07-30T11:53:19;30.40;41.50
30336;DHT22;17142;47.990;7.846;2022-07-30T11:55:51;30.50;41.20
30336;DHT22;17142;47.990;7.846;2022-07-30T11:58:30;30.80;41.10
30336;DHT22;17142;47.990;7.846;2022-07-30T12:01:05;31.10;40.20
30336;DHT22;17142;47.990;7.846;2022-07-30T12:03:31;31.00;40.40
30336;DHT22;17142;47.990;7.846;2022-07-30T12:06:09;30.70;40.80
30336;DHT22;17142;47.990;7.846;2022-07-30T12:08:39;30.50;41.20
30336;DHT22;17142;47.990;7.846;2022-07-30T12:11:08;30.30;41.30
30336;DHT22;17142;47.990;7.846;2022-07-30T12:13:34;30.10;42.20
30336;DHT22;17142;47.990;7.846;2022-07-30T12:16:00;29.90;42.20
30336;DHT22;17142;47.990;7.846;2022-07-30T12:18:37;29.80;42.50
30336;DHT22;17142;47.990;7.846;2022-07-30T12:21:05;29.80;42.70
30336;DHT22;17142;47.990;7.846;2022-07-30T12:23:36;30.00;43.10
30336;DHT22;17142;47.990;7.846;2022-07-30T12:26:03;30.40;42.30
30336;DHT22;17142;47.990;7.846;2022-07-30T12:28:31;30.70;42.00
30336;DHT22;17142;47.990;7.846;2022-07-30T12:30:58;30.90;42.10
30336;DHT22;17142;47.990;7.846;2022-07-30T12:33:27;31.20;41.10
30336;DHT22;17142;47.990;7.846;2022-07-30T12:35:58;31.50;40.70
30336;DHT22;17142;47.990;7.846;2022-07-30T12:38:25;31.90;40.20
30336;DHT22;17142;47.990;7.846;2022-07-30T12:41:06;32.10;39.50
30336;DHT22;17142;47.990;7.846;2022-07-30T12:44:04;32.00;39.70
30336;DHT22;17142;47.990;7.846;2022-07-30T12:46:37;31.50;40.10
30336;DHT22;17142;47.990;7.846;2022-07-30T12:49:04;30.90;40.30
30336;DHT22;17142;47.990;7.846;2022-07-30T12:51:35;30.50;40.80
30336;DHT22;17142;47.990;7.846;2022-07-30T12:54:16;30.40;41.30
30336;DHT22;17142;47.990;7.846;2022-07-30T12:56:59;30.40;41.10
30336;DHT22;17142;47.990;7.846;2022-07-30T12:59:26;30.30;41.20
30336;DHT22;17142;47.990;7.846;2022-07-30T13:01:52;30.40;41.20
30336;DHT22;17142;47.990;7.846;2022-07-30T13:04:18;30.30;41.30
30336;DHT22;17142;47.990;7.846;2022-07-30T13:07:02;30.20;41.90
30336;DHT22;17142;47.990;7.846;2022-07-30T13:09:28;30.20;41.90
30336;DHT22;17142;47.990;7.846;2022-07-30T13:11:56;30.40;42.10
30336;DHT22;17142;47.990;7.846;2022-07-30T13:14:26;30.70;41.40
30336;DHT22;17142;47.990;7.846;2022-07-30T13:16:53;31.10;40.90
30336;DHT22;17142;47.990;7.846;2022-07-30T13:19:23;31.40;39.80
30336;DHT22;17142;47.990;7.846;2022-07-30T13:21:48;31.40;39.50
30336;DHT22;17142;47.990;7.846;2022-07-30T13:24:17;31.10;39.60
30336;DHT22;17142;47.990;7.846;2022-07-30T13:26:43;30.80;39.90
30336;DHT22;17142;47.990;7.846;2022-07-30T13:29:09;30.30;40.20
30336;DHT22;17142;47.990;7.846;2022-07-30T13:31:38;29.80;41.20
30336;DHT22;17142;47.990;7.846;2022-07-30T13:34:06;29.50;42.00
30336;DHT22;17142;47.990;7.846;2022-07-30T13:36:34;29.30;42.10
30336;DHT22;17142;47.990;7.846;2022-07-30T13:39:00;29.20;42.10
30336;DHT22;17142;47.990;7.846;2022-07-30T13:41:28;29.30;42.00
30336;DHT22;17142;47.990;7.846;2022-07-30T13:43:54;29.50;42.30
30336;DHT22;17142;47.990;7.846;2022-07-30T13:46:19;29.80;42.00
30336;DHT22;17142;47.990;7.846;2022-07-30T13:48:45;30.00;41.80
30336;DHT22;17142;47.990;7.846;2022-07-30T13:51:13;30.20;40.80
30336;DHT22;17142;47.990;7.846;2022-07-30T13:53:40;30.10;41.20
30336;DHT22;17142;47.990;7.846;2022-07-30T13:56:06;30.30;41.00
30336;DHT22;17142;47.990;7.846;2022-07-30T13:58:32;30.10;41.00
30336;DHT22;17142;47.990;7.846;2022-07-30T14:00:58;29.80;41.50
30336;DHT22;17142;47.990;7.846;2022-07-30T14:03:23;29.90;41.80
30336;DHT22;17142;47.990;7.846;2022-07-30T14:05:51;30.20;41.10
30336;DHT22;17142;47.990;7.846;2022-07-30T14:08:19;30.50;40.40
30336;DHT22;17142;47.990;7.846;2022-07-30T14:10:47;30.70;40.40
30336;DHT22;17142;47.990;7.846;2022-07-30T14:13:15;31.00;40.40
30336;DHT22;17142;47.990;7.846;2022-07-30T14:15:41;31.30;40.10
30336;DHT22;17142;47.990;7.846;2022-07-30T14:18:06;31.30;39.70
30336;DHT22;17142;47.990;7.846;2022-07-30T14:20:32;31.20;39.90
30336;DHT22;17142;47.990;7.846;2022-07-30T14:22:58;31.10;40.00
30336;DHT22;17142;47.990;7.846;2022-07-30T14:25:28;31.20;40.30
30336;DHT22;17142;47.990;7.846;2022-07-30T14:27:54;31.20;39.80
30336;DHT22;17142;47.990;7.846;2022-07-30T14:30:19;31.00;40.00
30336;DHT22;17142;47.990;7.846;2022-07-30T14:32:45;30.80;40.00
30336;DHT22;17142;47.990;7.846;2022-07-30T14:35:11;30.50;40.20
30336;DHT22;17142;47.990;7.846;2022-07-30T14:37:40;30.30;40.90
30336;DHT22;17142;47.990;7.846;2022-07-30T14:40:10;30.00;41.00
30336;DHT22;17142;47.990;7.846;2022-07-30T14:42:38;29.80;41.70
30336;DHT22;17142;47.990;7.846;2022-07-30T14:45:06;29.60;41.70
30336;DHT22;17142;47.990;7.846;2022-07-30T14:47:31;29.40;42.10
30336;DHT22;17142;47.990;7.846;2022-07-30T14:49:58;29.20;42.50
30336;DHT22;17142;47.990;7.846;2022-07-30T14:52:23;29.10;43.20
30336;DHT22;17142;47.990;7.846;2022-07-30T14:54:51;29.00;42.90
30336;DHT22;17142;47.990;7.846;2022-07-30T14:57:17;29.00;42.90
30336;DHT22;17142;47.990;7.846;2022-07-30T14:59:43;29.10;43.00
30336;DHT22;17142;47.990;7.846;2022-07-30T15:02:11;29.10;42.60
30336;DHT22;17142;47.990;7.846;2022-07-30T15:04:37;29.10;43.00
30336;DHT22;17142;47.990;7.846;2022-07-30T15:07:02;29.10;42.60
30336;DHT22;17142;47.990;7.846;2022-07-30T15:09:28;29.20;42.60
30336;DHT22;17142;47.990;7.846;2022-07-30T15:11:53;29.20;42.40
30336;DHT22;17142;47.990;7.846;2022-07-30T15:14:20;29.40;42.30
30336;DHT22;17142;47.990;7.846;2022-07-30T15:16:46;29.80;42.10
30336;DHT22;17142;47.990;7.846;2022-07-30T15:19:12;30.10;41.80
30336;DHT22;17142;47.990;7.846;2022-07-30T15:21:40;30.30;41.80
30336;DHT22;17142;47.990;7.846;2022-07-30T15:24:11;30.40;41.60
30336;DHT22;17142;47.990;7.846;2022-07-30T15:26:37;30.40;41.00
30336;DHT22;17142;47.990;7.846;2022-07-30T15:29:02;30.50;41.80
30336;DHT22;17142;47.990;7.846;2022-07-30T15:31:28;30.50;40.30
30336;DHT22;17142;47.990;7.846;2022-07-30T15:33:54;30.30;40.80
30336;DHT22;17142;47.990;7.846;2022-07-30T15:36:19;30.00;41.10
30336;DHT22;17142;47.990;7.846;2022-07-30T15:38:47;29.60;41.50
30336;DHT22;17142;47.990;7.846;2022-07-30T15:41:15;29.30;42.00
30336;DHT22;17142;47.990;7.846;2022-07-30T15:43:43;29.30;42.40
30336;DHT22;17142;47.990;7.846;2022-07-30T15:46:13;29.30;42.40
30336;DHT22;17142;47.990;7.846;2022-07-30T15:48:39;29.50;42.60
30336;DHT22;17142;47.990;7.846;2022-07-30T15:51:04;29.70;41.80
30336;DHT22;17142;47.990;7.846;2022-07-30T15:53:33;29.80;41.60
30336;DHT22;17142;47.990;7.846;2022-07-30T15:55:59;29.90;41.50
30336;DHT22;17142;47.990;7.846;2022-07-30T15:58:25;29.80;41.10
30336;DHT22;17142;47.990;7.846;2022-07-30T16:00:50;29.70;41.40
30336;DHT22;17142;47.990;7.846;2022-07-30T16:03:18;29.50;41.60
30336;DHT22;17142;47.990;7.846;2022-07-30T16:05:46;29.30;41.90
30336;DHT22;17142;47.990;7.846;2022-07-30T16:08:12;29.30;42.00
30336;DHT22;17142;47.990;7.846;2022-07-30T16:10:38;29.20;42.00
30336;DHT22;17142;47.990;7.846;2022-07-30T16:13:05;29.00;41.40
30336;DHT22;17142;47.990;7.846;2022-07-30T16:15:31;28.80;42.00
30336;DHT22;17142;47.990;7.846;2022-07-30T16:17:57;28.80;42.00
30336;DHT22;17142;47.990;7.846;2022-07-30T16:20:23;28.80;42.00
30336;DHT22;17142;47.990;7.846;2022-07-30T16:22:49;28.90;42.20
30336;DHT22;17142;47.990;7.846;2022-07-30T16:25:15;28.80;42.50
30336;DHT22;17142;47.990;7.846;2022-07-30T16:27:40;28.70;42.70
30336;DHT22;17142;47.990;7.846;2022-07-30T16:30:07;28.60;43.10
30336;DHT22;17142;47.990;7.846;2022-07-30T16:32:33;28.50;43.20
30336;DHT22;17142;47.990;7.846;2022-07-30T16:34:59;28.30;43.20
30336;DHT22;17142;47.990;7.846;2022-07-30T16:37:25;28.10;43.60
30336;DHT22;17142;47.990;7.846;2022-07-30T16:39:50;27.90;43.90
30336;DHT22;17142;47.990;7.846;2022-07-30T16:42:16;27.90;44.10
30336;DHT22;17142;47.990;7.846;2022-07-30T16:44:41;27.90;44.40
30336;DHT22;17142;47.990;7.846;2022-07-30T16:47:07;27.90;44.20
30336;DHT22;17142;47.990;7.846;2022-07-30T16:49:33;28.00;44.10
30336;DHT22;17142;47.990;7.846;2022-07-30T16:51:58;28.20;43.70
30336;DHT22;17142;47.990;7.846;2022-07-30T16:54:26;28.40;43.50
30336;DHT22;17142;47.990;7.846;2022-07-30T16:56:54;28.60;43.50
30336;DHT22;17142;47.990;7.846;2022-07-30T16:59:22;28.70;43.10
30336;DHT22;17142;47.990;7.846;2022-07-30T17:01:48;28.80;43.10
30336;DHT22;17142;47.990;7.846;2022-07-30T17:04:14;28.90;42.90
30336;DHT22;17142;47.990;7.846;2022-07-30T17:06:39;28.90;42.90
30336;DHT22;17142;47.990;7.846;2022-07-30T17:09:07;28.90;42.70
30336;DHT22;17142;47.990;7.846;2022-07-30T17:11:33;28.80;42.70
30336;DHT22;17142;47.990;7.846;2022-07-30T17:13:58;28.80;42.70
30336;DHT22;17142;47.990;7.846;2022-07-30T17:16:24;28.70;42.90
30336;DHT22;17142;47.990;7.846;2022-07-30T17:18:50;28.50;43.80
30336;DHT22;17142;47.990;7.846;2022-07-30T17:21:16;28.30;43.40
30336;DHT22;17142;47.990;7.846;2022-07-30T17:23:42;28.20;43.80
30336;DHT22;17142;47.990;7.846;2022-07-30T17:26:10;28.20;44.20
30336;DHT22;17142;47.990;7.846;2022-07-30T17:28:38;28.10;43.10
30336;DHT22;17142;47.990;7.846;2022-07-30T17:31:06;28.10;43.00
30336;DHT22;17142;47.990;7.846;2022-07-30T17:33:31;28.30;43.40
30336;DHT22;17142;47.990;7.846;2022-07-30T17:35:57;28.50;43.20
30336;DHT22;17142;47.990;7.846;2022-07-30T17:38:23;28.70;42.80
30336;DHT22;17142;47.990;7.846;2022-07-30T17:40:49;29.00;42.50
30336;DHT22;17142;47.990;7.846;2022-07-30T17:43:14;29.40;42.10
30336;DHT22;17142;47.990;7.846;2022-07-30T17:45:41;29.80;41.60
30336;DHT22;17142;47.990;7.846;2022-07-30T17:48:07;30.10;40.80
30336;DHT22;17142;47.990;7.846;2022-07-30T17:50:33;30.40;40.60
30336;DHT22;17142;47.990;7.846;2022-07-30T17:53:02;30.60;40.00
30336;DHT22;17142;47.990;7.846;2022-07-30T17:55:28;30.80;39.50
30336;DHT22;17142;47.990;7.846;2022-07-30T17:57:56;31.00;39.50
30336;DHT22;17142;47.990;7.846;2022-07-30T18:00:21;31.00;39.50
30336;DHT22;17142;47.990;7.846;2022-07-30T18:02:47;31.00;39.60
30336;DHT22;17142;47.990;7.846;2022-07-30T18:05:13;30.80;39.70
30336;DHT22;17142;47.990;7.846;2022-07-30T18:07:42;30.60;39.90
30336;DHT22;17142;47.990;7.846;2022-07-30T18:10:11;30.60;40.00
30336;DHT22;17142;47.990;7.846;2022-07-30T18:12:37;30.60;39.80
30336;DHT22;17142;47.990;7.846;2022-07-30T18:15:03;30.50;40.10
30336;DHT22;17142;47.990;7.846;2022-07-30T18:17:29;30.20;40.40
30336;DHT22;17142;47.990;7.846;2022-07-30T18:19:55;29.90;40.70
30336;DHT22;17142;47.990;7.846;2022-07-30T18:22:20;29.40;41.40
30336;DHT22;17142;47.990;7.846;2022-07-30T18:24:46;28.90;42.40
30336;DHT22;17142;47.990;7.846;2022-07-30T18:27:13;28.60;43.00
30336;DHT22;17142;47.990;7.846;2022-07-30T18:29:41;28.30;43.70
30336;DHT22;17142;47.990;7.846;2022-07-30T18:32:08;27.90;44.20
30336;DHT22;17142;47.990;7.846;2022-07-30T18:34:36;27.50;44.70
30336;DHT22;17142;47.990;7.846;2022-07-30T18:37:02;27.20;45.40
30336;DHT22;17142;47.990;7.846;2022-07-30T18:39:30;26.90;46.00
30336;DHT22;17142;47.990;7.846;2022-07-30T18:41:57;26.60;46.90
30336;DHT22;17142;47.990;7.846;2022-07-30T18:44:23;26.30;47.90
30336;DHT22;17142;47.990;7.846;2022-07-30T18:46:49;26.00;49.00
30336;DHT22;17142;47.990;7.846;2022-07-30T18:49:17;25.70;50.20
30336;DHT22;17142;47.990;7.846;2022-07-30T18:51:42;25.40;51.20
30336;DHT22;17142;47.990;7.846;2022-07-30T18:54:08;25.20;52.20
30336;DHT22;17142;47.990;7.846;2022-07-30T18:56:36;24.90;52.80
30336;DHT22;17142;47.990;7.846;2022-07-30T18:59:02;24.70;53.50
30336;DHT22;17142;47.990;7.846;2022-07-30T19:01:27;24.50;53.90
30336;DHT22;17142;47.990;7.846;2022-07-30T19:03:55;24.30;54.40
30336;DHT22;17142;47.990;7.846;2022-07-30T19:06:21;24.20;55.10
30336;DHT22;17142;47.990;7.846;2022-07-30T19:08:49;23.90;55.60
30336;DHT22;17142;47.990;7.846;2022-07-30T19:11:14;23.70;56.30
30336;DHT22;17142;47.990;7.846;2022-07-30T19:13:40;23.50;56.70
30336;DHT22;17142;47.990;7.846;2022-07-30T19:16:06;23.40;57.30
30336;DHT22;17142;47.990;7.846;2022-07-30T19:18:32;23.20;57.80
30336;DHT22;17142;47.990;7.846;2022-07-30T19:20:58;23.10;58.40
30336;DHT22;17142;47.990;7.846;2022-07-30T19:23:26;22.90;58.70
30336;DHT22;17142;47.990;7.846;2022-07-30T19:25:51;22.80;59.30
30336;DHT22;17142;47.990;7.846;2022-07-30T19:28:17;22.60;59.60
30336;DHT22;17142;47.990;7.846;2022-07-30T19:30:43;22.50;60.00
30336;DHT22;17142;47.990;7.846;2022-07-30T19:33:11;22.40;60.60
30336;DHT22;17142;47.990;7.846;2022-07-30T19:35:37;22.30;61.10
30336;DHT22;17142;47.990;7.846;2022-07-30T19:38:04;22.20;61.70
30336;DHT22;17142;47.990;7.846;2022-07-30T19:40:30;22.20;62.30
30336;DHT22;17142;47.990;7.846;2022-07-30T19:43:00;22.10;62.60
30336;DHT22;17142;47.990;7.846;2022-07-30T19:45:27;22.10;62.90
30336;DHT22;17142;47.990;7.846;2022-07-30T19:47:53;22.00;63.10
30336;DHT22;17142;47.990;7.846;2022-07-30T19:50:18;22.00;63.00
30336;DHT22;17142;47.990;7.846;2022-07-30T19:52:44;22.10;62.10
30336;DHT22;17142;47.990;7.846;2022-07-30T19:55:12;22.20;61.30
30336;DHT22;17142;47.990;7.846;2022-07-30T19:57:37;22.30;60.70
30336;DHT22;17142;47.990;7.846;2022-07-30T20:00:03;22.30;60.30
30336;DHT22;17142;47.990;7.846;2022-07-30T20:02:31;22.40;59.80
30336;DHT22;17142;47.990;7.846;2022-07-30T20:05:02;22.40;60.00
30336;DHT22;17142;47.990;7.846;2022-07-30T20:07:28;22.40;60.00
30336;DHT22;17142;47.990;7.846;2022-07-30T20:09:54;22.40;60.40
30336;DHT22;17142;47.990;7.846;2022-07-30T20:12:19;22.40;60.30
30336;DHT22;17142;47.990;7.846;2022-07-30T20:14:45;22.30;60.80
30336;DHT22;17142;47.990;7.846;2022-07-30T20:17:11;22.30;61.00
30336;DHT22;17142;47.990;7.846;2022-07-30T20:19:36;22.20;61.30
30336;DHT22;17142;47.990;7.846;2022-07-30T20:22:05;22.20;61.80
30336;DHT22;17142;47.990;7.846;2022-07-30T20:24:30;22.10;61.80
30336;DHT22;17142;47.990;7.846;2022-07-30T20:26:59;22.00;62.30
30336;DHT22;17142;47.990;7.846;2022-07-30T20:29:27;21.90;62.60
30336;DHT22;17142;47.990;7.846;2022-07-30T20:31:52;21.80;62.70
30336;DHT22;17142;47.990;7.846;2022-07-30T20:34:21;21.80;63.10
30336;DHT22;17142;47.990;7.846;2022-07-30T20:36:48;21.70;63.60
30336;DHT22;17142;47.990;7.846;2022-07-30T20:39:14;21.70;63.80
30336;DHT22;17142;47.990;7.846;2022-07-30T20:41:39;21.60;63.50
30336;DHT22;17142;47.990;7.846;2022-07-30T20:44:05;21.70;63.60
30336;DHT22;17142;47.990;7.846;2022-07-30T20:46:31;21.60;63.70
30336;DHT22;17142;47.990;7.846;2022-07-30T20:49:01;21.60;63.70
30336;DHT22;17142;47.990;7.846;2022-07-30T20:51:30;21.50;63.90
30336;DHT22;17142;47.990;7.846;2022-07-30T20:53:55;21.50;64.20
30336;DHT22;17142;47.990;7.846;2022-07-30T20:56:23;21.50;64.60
30336;DHT22;17142;47.990;7.846;2022-07-30T20:58:49;21.40;64.60
30336;DHT22;17142;47.990;7.846;2022-07-30T21:01:17;21.30;64.90
30336;DHT22;17142;47.990;7.846;2022-07-30T21:03:43;21.30;65.30
30336;DHT22;17142;47.990;7.846;2022-07-30T21:06:08;21.20;65.30
30336;DHT22;17142;47.990;7.846;2022-07-30T21:08:34;21.30;67.30
30336;DHT22;17142;47.990;7.846;2022-07-30T21:11:02;21.30;66.60
30336;DHT22;17142;47.990;7.846;2022-07-30T21:13:28;21.40;67.10
30336;DHT22;17142;47.990;7.846;2022-07-30T21:15:55;21.40;66.40
30336;DHT22;17142;47.990;7.846;2022-07-30T21:18:21;21.40;66.00
30336;DHT22;17142;47.990;7.846;2022-07-30T21:20:47;21.40;66.20
30336;DHT22;17142;47.990;7.846;2022-07-30T21:23:13;21.40;66.50
30336;DHT22;17142;47.990;7.846;2022-07-30T21:25:43;21.30;66.60